sensor_id;sensor_type;location;lat;lon;timestamp;temperature;humidity
10702;DHT22;5402;50.004;8.246;2023-05-29T00:01:56;15.80;95.90
10702;DHT22;5402;50.004;8.246;2023-05-29T00:04:22;15.90;96.10
10702;DHT22;5402;50.004;8.246;2023-05-29T00:06:50;15.70;96.10
10702;DHT22;5402;50.004;8.246;2023-05-29T00:09:17;15.90;96.10
10702;DHT22;5402;50.004;8.246;2023-05-29T00:11:44;15.80;96.20
10702;DHT22;5402;50.004;8.246;2023-05-29T00:14:16;15.80;96.20
10702;DHT22;5402;50.004;8.246;2023-05-29T00:16:44;15.80;96.20
10702;DHT22;5402;50.004;8.246;2023-05-29T00:19:12;15.80;96.30
10702;DHT22;5402;50.004;8.246;2023-05-29T00:21:39;15.70;96.60
10702;DHT22;5402;50.004;8.246;2023-05-29T00:24:07;15.70;96.50
10702;DHT22;5402;50.004;8.246;2023-05-29T00:26:34;15.70;96.60
10702;DHT22;5402;50.004;8.246;2023-05-29T00:29:01;15.60;96.80
10702;DHT22;5402;50.004;8.246;2023-05-29T00:31:28;15.50;97.00
10702;DHT22;5402;50.004;8.246;2023-05-29T00:33:54;15.50;96.90
10702;DHT22;5402;50.004;8.246;2023-05-29T00:36:21;15.40;96.60
10702;DHT22;5402;50.004;8.246;2023-05-29T00:38:49;15.40;96.80
10702;DHT22;5402;50.004;8.246;2023-05-29T00:41:17;15.40;96.70
10702;DHT22;5402;50.004;8.246;2023-05-29T00:43:44;15.50;96.70
10702;DHT22;5402;50.004;8.246;2023-05-29T00:46:13;15.50;96.70
10702;DHT22;5402;50.004;8.246;2023-05-29T00:48:41;15.50;96.70
10702;DHT22;5402;50.004;8.246;2023-05-29T00:51:08;15.50;96.90
10702;DHT22;5402;50.004;8.246;2023-05-29T00:53:36;15.50;96.80
10702;DHT22;5402;50.004;8.246;2023-05-29T00:56:04;15.50;96.60
10702;DHT22;5402;50.004;8.246;2023-05-29T00:58:34;15.50;96.80
10702;DHT22;5402;50.004;8.246;2023-05-29T01:01:01;15.60;96.70
10702;DHT22;5402;50.004;8.246;2023-05-29T01:03:28;15.60;96.40
10702;DHT22;5402;50.004;8.246;2023-05-29T01:05:57;15.70;96.20
10702;DHT22;5402;50.004;8.246;2023-05-29T01:08:24;15.80;96.20
10702;DHT22;5402;50.004;8.246;2023-05-29T01:10:52;15.80;96.20
10702;DHT22;5402;50.004;8.246;2023-05-29T01:13:26;15.80;96.00
10702;DHT22;5402;50.004;8.246;2023-05-29T01:16:00;15.90;96.10
10702;DHT22;5402;50.004;8.246;2023-05-29T01:18:37;15.90;96.10
10702;DHT22;5402;50.004;8.246;2023-05-29T01:21:11;15.90;95.90
10702;DHT22;5402;50.004;8.246;2023-05-29T01:23:53;15.90;96.00
10702;DHT22;5402;50.004;8.246;2023-05-29T01:26:38;15.90;95.90
10702;DHT22;5402;50.004;8.246;2023-05-29T01:29:08;15.90;95.80
10702;DHT22;5402;50.004;8.246;2023-05-29T01:31:37;16.00;95.70
10702;DHT22;5402;50.004;8.246;2023-05-29T01:34:06;16.00;95.70
10702;DHT22;5402;50.004;8.246;2023-05-29T01:36:32;16.10;95.60
10702;DHT22;5402;50.004;8.246;2023-05-29T01:39:00;16.20;95.10
10702;DHT22;5402;50.004;8.246;2023-05-29T01:41:29;16.20;95.30
10702;DHT22;5402;50.004;8.246;2023-05-29T01:43:58;16.20;95.20
10702;DHT22;5402;50.004;8.246;2023-05-29T01:46:25;16.10;95.40
10702;DHT22;5402;50.004;8.246;2023-05-29T01:48:52;16.10;95.20
10702;DHT22;5402;50.004;8.246;2023-05-29T01:51:20;16.10;95.30
10702;DHT22;5402;50.004;8.246;2023-05-29T01:53:47;16.20;94.80
10702;DHT22;5402;50.004;8.246;2023-05-29T01:56:14;16.40;94.90
10702;DHT22;5402;50.004;8.246;2023-05-29T01:58:41;16.20;95.00
10702;DHT22;5402;50.004;8.246;2023-05-29T02:01:10;16.20;95.30
10702;DHT22;5402;50.004;8.246;2023-05-29T02:03:36;16.10;95.40
10702;DHT22;5402;50.004;8.246;2023-05-29T02:06:03;15.90;95.70
10702;DHT22;5402;50.004;8.246;2023-05-29T02:08:32;15.90;95.90
10702;DHT22;5402;50.004;8.246;2023-05-29T02:10:59;15.70;96.30
10702;DHT22;5402;50.004;8.246;2023-05-29T02:13:26;15.60;96.40
10702;DHT22;5402;50.004;8.246;2023-05-29T02:15:52;15.50;96.60
10702;DHT22;5402;50.004;8.246;2023-05-29T02:18:20;15.30;97.10
10702;DHT22;5402;50.004;8.246;2023-05-29T02:20:47;15.30;97.30
10702;DHT22;5402;50.004;8.246;2023-05-29T02:23:14;15.20;97.30
10702;DHT22;5402;50.004;8.246;2023-05-29T02:25:40;15.20;97.50
10702;DHT22;5402;50.004;8.246;2023-05-29T02:28:07;15.10;97.70
10702;DHT22;5402;50.004;8.246;2023-05-29T02:30:34;14.90;97.80
10702;DHT22;5402;50.004;8.246;2023-05-29T02:33:01;14.80;97.90
10702;DHT22;5402;50.004;8.246;2023-05-29T02:35:29;14.80;98.10
10702;DHT22;5402;50.004;8.246;2023-05-29T02:37:56;14.70;98.20
10702;DHT22;5402;50.004;8.246;2023-05-29T02:40:22;14.70;98.40
10702;DHT22;5402;50.004;8.246;2023-05-29T02:42:49;14.70;98.50
10702;DHT22;5402;50.004;8.246;2023-05-29T02:45:16;14.60;98.50
10702;DHT22;5402;50.004;8.246;2023-05-29T02:47:43;14.50;98.70
10702;DHT22;5402;50.004;8.246;2023-05-29T02:50:10;14.50;98.70
10702;DHT22;5402;50.004;8.246;2023-05-29T02:52:38;14.40;98.70
10702;DHT22;5402;50.004;8.246;2023-05-29T02:55:06;14.40;98.80
10702;DHT22;5402;50.004;8.246;2023-05-29T02:57:33;14.30;98.80
10702;DHT22;5402;50.004;8.246;2023-05-29T03:00:00;14.30;99.00
10702;DHT22;5402;50.004;8.246;2023-05-29T03:02:26;14.30;99.20
10702;DHT22;5402;50.004;8.246;2023-05-29T03:04:53;14.20;99.30
10702;DHT22;5402;50.004;8.246;2023-05-29T03:07:20;14.20;99.30
10702;DHT22;5402;50.004;8.246;2023-05-29T03:09:48;14.20;99.40
10702;DHT22;5402;50.004;8.246;2023-05-29T03:12:15;14.20;99.40
10702;DHT22;5402;50.004;8.246;2023-05-29T03:14:44;14.10;99.50
10702;DHT22;5402;50.004;8.246;2023-05-29T03:17:10;14.10;99.50
10702;DHT22;5402;50.004;8.246;2023-05-29T03:19:37;14.00;99.40
10702;DHT22;5402;50.004;8.246;2023-05-29T03:22:05;13.90;99.50
10702;DHT22;5402;50.004;8.246;2023-05-29T03:24:31;14.00;99.60
10702;DHT22;5402;50.004;8.246;2023-05-29T03:27:01;14.00;99.60
10702;DHT22;5402;50.004;8.246;2023-05-29T03:29:31;13.90;99.70
10702;DHT22;5402;50.004;8.246;2023-05-29T03:31:59;13.90;99.90
10702;DHT22;5402;50.004;8.246;2023-05-29T03:34:26;13.90;99.90
10702;DHT22;5402;50.004;8.246;2023-05-29T03:36:53;13.90;99.90
10702;DHT22;5402;50.004;8.246;2023-05-29T03:39:19;13.90;99.90
10702;DHT22;5402;50.004;8.246;2023-05-29T03:41:46;13.90;99.90
10702;DHT22;5402;50.004;8.246;2023-05-29T03:44:14;13.80;99.90
10702;DHT22;5402;50.004;8.246;2023-05-29T03:46:41;13.90;99.90
10702;DHT22;5402;50.004;8.246;2023-05-29T03:49:07;13.90;99.90
10702;DHT22;5402;50.004;8.246;2023-05-29T03:51:34;13.90;99.90
10702;DHT22;5402;50.004;8.246;2023-05-29T03:54:01;14.00;99.90
10702;DHT22;5402;50.004;8.246;2023-05-29T03:56:28;14.00;99.90
10702;DHT22;5402;50.004;8.246;2023-05-29T03:58:55;14.00;99.90
10702;DHT22;5402;50.004;8.246;2023-05-29T04:01:24;14.00;99.90
10702;DHT22;5402;50.004;8.246;2023-05-29T04:03:50;14.20;99.90
10702;DHT22;5402;50.004;8.246;2023-05-29T04:06:17;14.20;99.90
10702;DHT22;5402;50.004;8.246;2023-05-29T04:08:44;14.30;99.90
10702;DHT22;5402;50.004;8.246;2023-05-29T04:11:11;14.40;99.90
10702;DHT22;5402;50.004;8.246;2023-05-29T04:13:39;14.40;99.90
10702;DHT22;5402;50.004;8.246;2023-05-29T04:16:06;14.50;99.90
10702;DHT22;5402;50.004;8.246;2023-05-29T04:18:34;14.50;99.90
10702;DHT22;5402;50.004;8.246;2023-05-29T04:21:01;14.60;99.90
10702;DHT22;5402;50.004;8.246;2023-05-29T04:23:28;14.80;99.90
10702;DHT22;5402;50.004;8.246;2023-05-29T04:25:55;14.80;99.90
10702;DHT22;5402;50.004;8.246;2023-05-29T04:28:22;15.00;99.90
10702;DHT22;5402;50.004;8.246;2023-05-29T04:30:49;15.00;99.90
10702;DHT22;5402;50.004;8.246;2023-05-29T04:33:17;15.10;99.90
10702;DHT22;5402;50.004;8.246;2023-05-29T04:35:45;15.20;99.90
10702;DHT22;5402;50.004;8.246;2023-05-29T04:38:14;15.30;99.80
10702;DHT22;5402;50.004;8.246;2023-05-29T04:40:41;15.40;99.80
10702;DHT22;5402;50.004;8.246;2023-05-29T04:43:08;15.50;99.90
10702;DHT22;5402;50.004;8.246;2023-05-29T04:45:36;15.30;99.90
10702;DHT22;5402;50.004;8.246;2023-05-29T04:48:03;15.30;99.90
10702;DHT22;5402;50.004;8.246;2023-05-29T04:50:30;15.30;99.90
10702;DHT22;5402;50.004;8.246;2023-05-29T04:52:59;15.50;99.90
10702;DHT22;5402;50.004;8.246;2023-05-29T04:55:26;15.50;99.90
10702;DHT22;5402;50.004;8.246;2023-05-29T04:57:52;15.70;99.70
10702;DHT22;5402;50.004;8.246;2023-05-29T05:00:20;15.70;99.90
10702;DHT22;5402;50.004;8.246;2023-05-29T05:02:48;16.00;99.50
10702;DHT22;5402;50.004;8.246;2023-05-29T05:05:16;16.10;99.10
10702;DHT22;5402;50.004;8.246;2023-05-29T05:07:43;16.30;98.90
10702;DHT22;5402;50.004;8.246;2023-05-29T05:10:11;16.50;98.80
10702;DHT22;5402;50.004;8.246;2023-05-29T05:12:38;16.60;98.20
10702;DHT22;5402;50.004;8.246;2023-05-29T05:15:06;16.70;98.20
10702;DHT22;5402;50.004;8.246;2023-05-29T05:17:33;16.80;97.60
10702;DHT22;5402;50.004;8.246;2023-05-29T05:19:59;17.00;97.50
10702;DHT22;5402;50.004;8.246;2023-05-29T05:22:27;17.10;97.20
10702;DHT22;5402;50.004;8.246;2023-05-29T05:24:54;17.20;97.20
10702;DHT22;5402;50.004;8.246;2023-05-29T05:27:23;17.30;97.50
10702;DHT22;5402;50.004;8.246;2023-05-29T05:29:50;17.30;96.90
10702;DHT22;5402;50.004;8.246;2023-05-29T05:32:16;17.40;96.90
10702;DHT22;5402;50.004;8.246;2023-05-29T05:34:43;17.50;96.70
10702;DHT22;5402;50.004;8.246;2023-05-29T05:37:10;17.60;96.70
10702;DHT22;5402;50.004;8.246;2023-05-29T05:39:36;17.60;96.40
10702;DHT22;5402;50.004;8.246;2023-05-29T05:42:03;17.70;96.50
10702;DHT22;5402;50.004;8.246;2023-05-29T05:44:32;17.70;96.40
10702;DHT22;5402;50.004;8.246;2023-05-29T05:46:58;17.60;96.40
10702;DHT22;5402;50.004;8.246;2023-05-29T05:49:25;17.80;96.60
10702;DHT22;5402;50.004;8.246;2023-05-29T05:51:52;17.90;96.60
10702;DHT22;5402;50.004;8.246;2023-05-29T05:54:18;17.90;96.60
10702;DHT22;5402;50.004;8.246;2023-05-29T05:56:45;17.80;96.80
10702;DHT22;5402;50.004;8.246;2023-05-29T05:59:12;17.80;96.80
10702;DHT22;5402;50.004;8.246;2023-05-29T06:01:40;17.80;97.10
10702;DHT22;5402;50.004;8.246;2023-05-29T06:04:07;17.70;96.90
10702;DHT22;5402;50.004;8.246;2023-05-29T06:06:34;17.90;96.60
10702;DHT22;5402;50.004;8.246;2023-05-29T06:09:01;17.80;97.10
10702;DHT22;5402;50.004;8.246;2023-05-29T06:11:29;17.80;96.80
10702;DHT22;5402;50.004;8.246;2023-05-29T06:13:57;17.80;96.90
10702;DHT22;5402;50.004;8.246;2023-05-29T06:16:23;17.90;96.70
10702;DHT22;5402;50.004;8.246;2023-05-29T06:18:51;18.00;96.90
10702;DHT22;5402;50.004;8.246;2023-05-29T06:21:20;18.10;96.60
10702;DHT22;5402;50.004;8.246;2023-05-29T06:23:47;18.10;96.60
10702;DHT22;5402;50.004;8.246;2023-05-29T06:26:14;18.10;96.90
10702;DHT22;5402;50.004;8.246;2023-05-29T06:28:41;18.10;96.80
10702;DHT22;5402;50.004;8.246;2023-05-29T06:31:08;18.10;96.80
10702;DHT22;5402;50.004;8.246;2023-05-29T06:33:35;18.10;97.10
10702;DHT22;5402;50.004;8.246;2023-05-29T06:36:04;18.20;97.00
10702;DHT22;5402;50.004;8.246;2023-05-29T06:38:31;18.20;96.90
10702;DHT22;5402;50.004;8.246;2023-05-29T06:40:57;18.20;97.10
10702;DHT22;5402;50.004;8.246;2023-05-29T06:43:25;18.20;97.30
10702;DHT22;5402;50.004;8.246;2023-05-29T06:45:52;18.30;97.10
10702;DHT22;5402;50.004;8.246;2023-05-29T06:48:18;18.30;97.20
10702;DHT22;5402;50.004;8.246;2023-05-29T06:50:46;18.30;97.50
10702;DHT22;5402;50.004;8.246;2023-05-29T06:53:14;18.40;97.10
10702;DHT22;5402;50.004;8.246;2023-05-29T06:55:41;18.50;97.20
10702;DHT22;5402;50.004;8.246;2023-05-29T06:58:08;18.50;97.10
10702;DHT22;5402;50.004;8.246;2023-05-29T07:00:35;18.60;97.10
10702;DHT22;5402;50.004;8.246;2023-05-29T07:03:01;18.80;96.60
10702;DHT22;5402;50.004;8.246;2023-05-29T07:05:28;18.90;95.80
10702;DHT22;5402;50.004;8.246;2023-05-29T07:07:56;19.20;95.00
10702;DHT22;5402;50.004;8.246;2023-05-29T07:10:26;19.40;94.70
10702;DHT22;5402;50.004;8.246;2023-05-29T07:12:52;19.50;94.50
10702;DHT22;5402;50.004;8.246;2023-05-29T07:15:19;19.60;94.20
10702;DHT22;5402;50.004;8.246;2023-05-29T07:17:46;19.80;93.50
10702;DHT22;5402;50.004;8.246;2023-05-29T07:20:13;19.90;93.30
10702;DHT22;5402;50.004;8.246;2023-05-29T07:22:40;20.00;93.50
10702;DHT22;5402;50.004;8.246;2023-05-29T07:25:07;20.00;92.60
10702;DHT22;5402;50.004;8.246;2023-05-29T07:27:35;20.10;92.60
10702;DHT22;5402;50.004;8.246;2023-05-29T07:30:05;20.10;92.40
10702;DHT22;5402;50.004;8.246;2023-05-29T07:32:32;20.20;92.40
10702;DHT22;5402;50.004;8.246;2023-05-29T07:35:00;20.30;92.20
10702;DHT22;5402;50.004;8.246;2023-05-29T07:37:27;20.40;91.90
10702;DHT22;5402;50.004;8.246;2023-05-29T07:39:55;20.50;91.90
10702;DHT22;5402;50.004;8.246;2023-05-29T07:42:21;20.50;91.70
10702;DHT22;5402;50.004;8.246;2023-05-29T07:44:49;20.60;91.30
10702;DHT22;5402;50.004;8.246;2023-05-29T07:47:16;20.70;91.30
10702;DHT22;5402;50.004;8.246;2023-05-29T07:49:43;20.80;91.10
10702;DHT22;5402;50.004;8.246;2023-05-29T07:52:09;20.90;90.90
10702;DHT22;5402;50.004;8.246;2023-05-29T07:54:36;21.00;91.10
10702;DHT22;5402;50.004;8.246;2023-05-29T07:57:03;21.10;90.80
10702;DHT22;5402;50.004;8.246;2023-05-29T07:59:34;21.10;90.80
10702;DHT22;5402;50.004;8.246;2023-05-29T08:02:03;21.20;90.50
10702;DHT22;5402;50.004;8.246;2023-05-29T08:04:30;21.40;90.10
10702;DHT22;5402;50.004;8.246;2023-05-29T08:06:57;21.50;88.40
10702;DHT22;5402;50.004;8.246;2023-05-29T08:09:24;21.60;89.20
10702;DHT22;5402;50.004;8.246;2023-05-29T08:11:51;21.70;87.50
10702;DHT22;5402;50.004;8.246;2023-05-29T08:14:17;21.80;86.10
10702;DHT22;5402;50.004;8.246;2023-05-29T08:16:44;21.80;85.60
10702;DHT22;5402;50.004;8.246;2023-05-29T08:19:12;21.90;85.20
10702;DHT22;5402;50.004;8.246;2023-05-29T08:21:39;21.90;85.60
10702;DHT22;5402;50.004;8.246;2023-05-29T08:24:06;22.00;85.90
10702;DHT22;5402;50.004;8.246;2023-05-29T08:26:34;22.30;87.20
10702;DHT22;5402;50.004;8.246;2023-05-29T08:29:01;22.50;86.60
10702;DHT22;5402;50.004;8.246;2023-05-29T08:31:29;22.90;85.40
10702;DHT22;5402;50.004;8.246;2023-05-29T08:33:56;23.00;83.90
10702;DHT22;5402;50.004;8.246;2023-05-29T08:36:25;23.10;85.30
10702;DHT22;5402;50.004;8.246;2023-05-29T08:38:53;23.10;84.10
10702;DHT22;5402;50.004;8.246;2023-05-29T08:41:23;23.20;84.50
10702;DHT22;5402;50.004;8.246;2023-05-29T08:43:52;23.30;84.50
10702;DHT22;5402;50.004;8.246;2023-05-29T08:46:19;23.10;84.50
10702;DHT22;5402;50.004;8.246;2023-05-29T08:48:49;23.40;85.00
10702;DHT22;5402;50.004;8.246;2023-05-29T08:51:19;23.40;83.60
10702;DHT22;5402;50.004;8.246;2023-05-29T08:53:48;23.70;84.40
10702;DHT22;5402;50.004;8.246;2023-05-29T08:56:15;23.80;83.40
10702;DHT22;5402;50.004;8.246;2023-05-29T08:58:43;23.80;83.40
10702;DHT22;5402;50.004;8.246;2023-05-29T09:01:10;23.90;83.90
10702;DHT22;5402;50.004;8.246;2023-05-29T09:03:37;23.80;83.90
10702;DHT22;5402;50.004;8.246;2023-05-29T09:06:04;23.80;83.40
10702;DHT22;5402;50.004;8.246;2023-05-29T09:08:32;23.80;82.70
10702;DHT22;5402;50.004;8.246;2023-05-29T09:11:01;23.90;82.70
10702;DHT22;5402;50.004;8.246;2023-05-29T09:13:28;24.20;81.80
10702;DHT22;5402;50.004;8.246;2023-05-29T09:15:57;23.90;81.60
10702;DHT22;5402;50.004;8.246;2023-05-29T09:18:28;23.90;82.80
10702;DHT22;5402;50.004;8.246;2023-05-29T09:20:56;24.00;82.60
10702;DHT22;5402;50.004;8.246;2023-05-29T09:23:23;24.20;82.80
10702;DHT22;5402;50.004;8.246;2023-05-29T09:25:53;24.30;81.80
10702;DHT22;5402;50.004;8.246;2023-05-29T09:28:22;24.70;82.90
10702;DHT22;5402;50.004;8.246;2023-05-29T09:30:51;24.70;81.00
10702;DHT22;5402;50.004;8.246;2023-05-29T09:33:18;24.70;81.30
10702;DHT22;5402;50.004;8.246;2023-05-29T09:35:46;24.90;80.40
10702;DHT22;5402;50.004;8.246;2023-05-29T09:38:13;24.90;80.90
10702;DHT22;5402;50.004;8.246;2023-05-29T09:40:41;25.10;80.60
10702;DHT22;5402;50.004;8.246;2023-05-29T09:43:11;24.80;80.10
10702;DHT22;5402;50.004;8.246;2023-05-29T09:45:41;24.90;79.80
10702;DHT22;5402;50.004;8.246;2023-05-29T09:48:13;24.90;79.30
10702;DHT22;5402;50.004;8.246;2023-05-29T09:50:40;25.00;78.80
10702;DHT22;5402;50.004;8.246;2023-05-29T09:53:16;24.80;77.60
10702;DHT22;5402;50.004;8.246;2023-05-29T09:55:45;24.50;76.80
10702;DHT22;5402;50.004;8.246;2023-05-29T09:58:13;24.40;78.00
10702;DHT22;5402;50.004;8.246;2023-05-29T10:00:42;24.40;78.70
10702;DHT22;5402;50.004;8.246;2023-05-29T10:03:09;24.40;79.30
10702;DHT22;5402;50.004;8.246;2023-05-29T10:05:37;24.50;79.30
10702;DHT22;5402;50.004;8.246;2023-05-29T10:08:05;24.60;78.40
10702;DHT22;5402;50.004;8.246;2023-05-29T10:10:35;24.70;76.90
10702;DHT22;5402;50.004;8.246;2023-05-29T10:13:03;24.70;75.90
10702;DHT22;5402;50.004;8.246;2023-05-29T10:15:32;24.40;74.60
10702;DHT22;5402;50.004;8.246;2023-05-29T10:18:02;24.50;75.10
10702;DHT22;5402;50.004;8.246;2023-05-29T10:20:31;24.40;74.50
10702;DHT22;5402;50.004;8.246;2023-05-29T10:23:00;24.30;76.70
10702;DHT22;5402;50.004;8.246;2023-05-29T10:25:30;24.50;76.70
10702;DHT22;5402;50.004;8.246;2023-05-29T10:27:59;24.70;74.00
10702;DHT22;5402;50.004;8.246;2023-05-29T10:30:30;24.70;73.70
10702;DHT22;5402;50.004;8.246;2023-05-29T10:33:35;24.70;74.30
10702;DHT22;5402;50.004;8.246;2023-05-29T10:36:10;24.80;73.60
10702;DHT22;5402;50.004;8.246;2023-05-29T10:38:40;24.70;73.50
10702;DHT22;5402;50.004;8.246;2023-05-29T10:41:32;24.70;73.60
10702;DHT22;5402;50.004;8.246;2023-05-29T10:44:38;24.70;74.00
10702;DHT22;5402;50.004;8.246;2023-05-29T10:47:07;24.60;73.80
10702;DHT22;5402;50.004;8.246;2023-05-29T10:49:37;24.50;73.40
10702;DHT22;5402;50.004;8.246;2023-05-29T10:52:05;24.60;74.00
10702;DHT22;5402;50.004;8.246;2023-05-29T10:54:49;24.70;73.30
10702;DHT22;5402;50.004;8.246;2023-05-29T10:57:18;24.80;72.50
10702;DHT22;5402;50.004;8.246;2023-05-29T10:59:47;24.70;70.90
10702;DHT22;5402;50.004;8.246;2023-05-29T11:02:19;24.70;71.40
10702;DHT22;5402;50.004;8.246;2023-05-29T11:05:19;24.90;70.30
10702;DHT22;5402;50.004;8.246;2023-05-29T11:07:55;25.00;69.00
10702;DHT22;5402;50.004;8.246;2023-05-29T11:10:43;24.90;67.40
10702;DHT22;5402;50.004;8.246;2023-05-29T11:13:10;24.90;66.70
10702;DHT22;5402;50.004;8.246;2023-05-29T11:15:37;25.00;67.10
10702;DHT22;5402;50.004;8.246;2023-05-29T11:18:11;25.00;65.30
10702;DHT22;5402;50.004;8.246;2023-05-29T11:20:43;25.10;66.30
10702;DHT22;5402;50.004;8.246;2023-05-29T11:23:15;25.20;66.10
10702;DHT22;5402;50.004;8.246;2023-05-29T11:25:44;25.30;67.30
10702;DHT22;5402;50.004;8.246;2023-05-29T11:28:11;25.10;67.90
10702;DHT22;5402;50.004;8.246;2023-05-29T11:30:42;25.20;69.50
10702;DHT22;5402;50.004;8.246;2023-05-29T11:33:15;25.40;70.40
10702;DHT22;5402;50.004;8.246;2023-05-29T11:35:48;25.60;69.50
10702;DHT22;5402;50.004;8.246;2023-05-29T11:38:17;25.60;68.20
10702;DHT22;5402;50.004;8.246;2023-05-29T11:40:44;25.60;68.60
10702;DHT22;5402;50.004;8.246;2023-05-29T11:43:12;25.70;69.00
10702;DHT22;5402;50.004;8.246;2023-05-29T11:45:39;25.60;68.40
10702;DHT22;5402;50.004;8.246;2023-05-29T11:48:05;25.70;68.70
10702;DHT22;5402;50.004;8.246;2023-05-29T11:50:34;25.60;69.70
10702;DHT22;5402;50.004;8.246;2023-05-29T11:53:02;25.60;69.70
10702;DHT22;5402;50.004;8.246;2023-05-29T11:55:29;25.50;70.80
10702;DHT22;5402;50.004;8.246;2023-05-29T11:57:57;25.60;69.90
10702;DHT22;5402;50.004;8.246;2023-05-29T12:00:25;25.60;69.80
10702;DHT22;5402;50.004;8.246;2023-05-29T12:02:51;25.40;71.20
10702;DHT22;5402;50.004;8.246;2023-05-29T12:05:19;25.20;72.00
10702;DHT22;5402;50.004;8.246;2023-05-29T12:07:50;25.40;73.00
10702;DHT22;5402;50.004;8.246;2023-05-29T12:10:22;25.60;71.80
10702;DHT22;5402;50.004;8.246;2023-05-29T12:12:50;25.70;72.80
10702;DHT22;5402;50.004;8.246;2023-05-29T12:15:18;25.80;71.80
10702;DHT22;5402;50.004;8.246;2023-05-29T12:17:47;25.80;72.30
10702;DHT22;5402;50.004;8.246;2023-05-29T12:20:14;25.80;72.60
10702;DHT22;5402;50.004;8.246;2023-05-29T12:22:43;25.90;72.20
10702;DHT22;5402;50.004;8.246;2023-05-29T12:25:12;26.10;72.60
10702;DHT22;5402;50.004;8.246;2023-05-29T12:27:40;26.10;72.00
10702;DHT22;5402;50.004;8.246;2023-05-29T12:30:13;26.40;72.10
10702;DHT22;5402;50.004;8.246;2023-05-29T12:32:42;26.30;71.80
10702;DHT22;5402;50.004;8.246;2023-05-29T12:35:13;26.40;71.40
10702;DHT22;5402;50.004;8.246;2023-05-29T12:37:44;26.20;71.10
10702;DHT22;5402;50.004;8.246;2023-05-29T12:40:17;26.20;72.90
10702;DHT22;5402;50.004;8.246;2023-05-29T12:42:46;26.30;71.00
10702;DHT22;5402;50.004;8.246;2023-05-29T12:45:12;26.30;71.60
10702;DHT22;5402;50.004;8.246;2023-05-29T12:47:45;26.30;72.20
10702;DHT22;5402;50.004;8.246;2023-05-29T12:50:20;26.50;73.40
10702;DHT22;5402;50.004;8.246;2023-05-29T12:52:53;26.50;72.60
10702;DHT22;5402;50.004;8.246;2023-05-29T12:55:21;26.50;72.90
10702;DHT22;5402;50.004;8.246;2023-05-29T12:57:48;26.70;72.10
10702;DHT22;5402;50.004;8.246;2023-05-29T13:00:16;26.60;72.60
10702;DHT22;5402;50.004;8.246;2023-05-29T13:02:43;26.60;71.80
10702;DHT22;5402;50.004;8.246;2023-05-29T13:05:10;26.60;72.20
10702;DHT22;5402;50.004;8.246;2023-05-29T13:07:37;26.60;72.20
10702;DHT22;5402;50.004;8.246;2023-05-29T13:10:05;26.40;72.50
10702;DHT22;5402;50.004;8.246;2023-05-29T13:12:34;26.30;71.60
10702;DHT22;5402;50.004;8.246;2023-05-29T13:15:01;26.10;72.20
10702;DHT22;5402;50.004;8.246;2023-05-29T13:17:28;26.00;73.10
10702;DHT22;5402;50.004;8.246;2023-05-29T13:19:54;26.00;72.30
10702;DHT22;5402;50.004;8.246;2023-05-29T13:22:21;25.90;72.00
10702;DHT22;5402;50.004;8.246;2023-05-29T13:24:48;25.90;72.20
10702;DHT22;5402;50.004;8.246;2023-05-29T13:27:15;26.00;71.60
10702;DHT22;5402;50.004;8.246;2023-05-29T13:29:43;26.00;71.00
10702;DHT22;5402;50.004;8.246;2023-05-29T13:32:10;26.00;72.60
10702;DHT22;5402;50.004;8.246;2023-05-29T13:34:37;26.00;72.60
10702;DHT22;5402;50.004;8.246;2023-05-29T13:37:04;25.90;72.00
10702;DHT22;5402;50.004;8.246;2023-05-29T13:39:30;26.00;72.80
10702;DHT22;5402;50.004;8.246;2023-05-29T13:41:57;26.10;71.50
10702;DHT22;5402;50.004;8.246;2023-05-29T13:44:24;26.10;71.70
10702;DHT22;5402;50.004;8.246;2023-05-29T13:46:52;26.10;71.40
10702;DHT22;5402;50.004;8.246;2023-05-29T13:49:19;26.20;72.60
10702;DHT22;5402;50.004;8.246;2023-05-29T13:51:45;26.30;71.30
10702;DHT22;5402;50.004;8.246;2023-05-29T13:54:15;26.30;71.90
10702;DHT22;5402;50.004;8.246;2023-05-29T13:56:43;26.40;71.80
10702;DHT22;5402;50.004;8.246;2023-05-29T13:59:09;26.40;70.50
10702;DHT22;5402;50.004;8.246;2023-05-29T14:01:36;26.40;71.10
10702;DHT22;5402;50.004;8.246;2023-05-29T14:04:04;26.30;71.60
10702;DHT22;5402;50.004;8.246;2023-05-29T14:06:31;26.40;72.10
10702;DHT22;5402;50.004;8.246;2023-05-29T14:08:59;26.50;72.60
10702;DHT22;5402;50.004;8.246;2023-05-29T14:11:26;26.50;72.20
10702;DHT22;5402;50.004;8.246;2023-05-29T14:13:53;26.50;73.20
10702;DHT22;5402;50.004;8.246;2023-05-29T14:16:19;26.60;72.40
10702;DHT22;5402;50.004;8.246;2023-05-29T14:18:46;26.60;71.20
10702;DHT22;5402;50.004;8.246;2023-05-29T14:21:15;26.70;70.70
10702;DHT22;5402;50.004;8.246;2023-05-29T14:23:42;26.60;71.40
10702;DHT22;5402;50.004;8.246;2023-05-29T14:26:08;26.40;71.00
10702;DHT22;5402;50.004;8.246;2023-05-29T14:28:35;26.50;71.40
10702;DHT22;5402;50.004;8.246;2023-05-29T14:31:02;26.30;71.80
10702;DHT22;5402;50.004;8.246;2023-05-29T14:33:29;26.30;72.30
10702;DHT22;5402;50.004;8.246;2023-05-29T14:35:56;26.40;71.60
10702;DHT22;5402;50.004;8.246;2023-05-29T14:38:24;26.40;70.90
10702;DHT22;5402;50.004;8.246;2023-05-29T14:40:52;26.30;71.20
10702;DHT22;5402;50.004;8.246;2023-05-29T14:43:18;26.30;71.30
10702;DHT22;5402;50.004;8.246;2023-05-29T14:45:45;26.40;71.40
10702;DHT22;5402;50.004;8.246;2023-05-29T14:48:12;26.40;71.60
10702;DHT22;5402;50.004;8.246;2023-05-29T14:50:38;26.50;72.00
10702;DHT22;5402;50.004;8.246;2023-05-29T14:53:05;26.60;72.70
10702;DHT22;5402;50.004;8.246;2023-05-29T14:55:33;26.70;71.60
10702;DHT22;5402;50.004;8.246;2023-05-29T14:58:03;26.80;69.60
10702;DHT22;5402;50.004;8.246;2023-05-29T15:00:30;26.60;68.80
10702;DHT22;5402;50.004;8.246;2023-05-29T15:02:56;26.60;68.30
10702;DHT22;5402;50.004;8.246;2023-05-29T15:05:24;26.50;69.10
10702;DHT22;5402;50.004;8.246;2023-05-29T15:07:51;26.40;69.90
10702;DHT22;5402;50.004;8.246;2023-05-29T15:10:19;26.50;70.50
10702;DHT22;5402;50.004;8.246;2023-05-29T15:12:48;26.60;70.10
10702;DHT22;5402;50.004;8.246;2023-05-29T15:15:15;26.60;69.20
10702;DHT22;5402;50.004;8.246;2023-05-29T15:17:41;26.60;69.20
10702;DHT22;5402;50.004;8.246;2023-05-29T15:20:11;26.50;69.40
10702;DHT22;5402;50.004;8.246;2023-05-29T15:22:38;26.50;69.00
10702;DHT22;5402;50.004;8.246;2023-05-29T15:25:05;26.50;69.70
10702;DHT22;5402;50.004;8.246;2023-05-29T15:27:32;26.50;69.90
10702;DHT22;5402;50.004;8.246;2023-05-29T15:30:10;26.60;70.40
10702;DHT22;5402;50.004;8.246;2023-05-29T15:32:38;26.50;71.10
10702;DHT22;5402;50.004;8.246;2023-05-29T15:35:05;26.70;71.70
10702;DHT22;5402;50.004;8.246;2023-05-29T15:37:33;26.80;71.00
10702;DHT22;5402;50.004;8.246;2023-05-29T15:39:59;26.90;71.80
10702;DHT22;5402;50.004;8.246;2023-05-29T15:42:26;26.90;70.10
10702;DHT22;5402;50.004;8.246;2023-05-29T15:44:53;26.90;70.00
10702;DHT22;5402;50.004;8.246;2023-05-29T15:47:21;27.00;69.70
10702;DHT22;5402;50.004;8.246;2023-05-29T15:49:48;27.00;70.00
10702;DHT22;5402;50.004;8.246;2023-05-29T15:52:14;27.10;68.40